createdAt,value
2022-12-15T00:02:17.491Z,14.40
2022-12-15T00:05:02.710Z,17.83
2022-12-15T00:07:48.052Z,15.67
2022-12-15T00:10:33.720Z,13.87
2022-12-15T00:13:18.886Z,15.40
2022-12-15T00:16:07.421Z,17.87
2022-12-15T00:18:52.904Z,16.80
2022-12-15T00:21:38.018Z,15.33
2022-12-15T00:24:23.870Z,16.00
2022-12-15T00:27:09.097Z,16.63
2022-12-15T00:29:54.710Z,17.57
2022-12-15T00:32:40.956Z,14.27
2022-12-15T00:35:27.558Z,17.90
2022-12-15T00:38:12.879Z,16.87
2022-12-15T00:40:39.571Z,15.30
2022-12-15T00:43:06.218Z,16.00
2022-12-15T00:45:51.212Z,15.10
2022-12-15T00:48:17.812Z,15.07
2022-12-15T00:50:53.392Z,16.63
2022-12-15T00:53:40.003Z,16.63
2022-12-15T00:56:26.310Z,16.43
2022-12-15T00:59:11.859Z,15.17
2022-12-15T01:01:57.773Z,15.17
2022-12-15T01:04:43.624Z,17.43
2022-12-15T01:07:28.910Z,17.47
2022-12-15T01:10:14.275Z,18.17
2022-12-15T01:12:59.545Z,15.53
2022-12-15T01:15:45.098Z,17.87
2022-12-15T01:18:30.634Z,16.10
2022-12-15T01:21:03.161Z,21.33
2022-12-15T01:23:31.402Z,17.83
2022-12-15T01:25:58.241Z,17.77
2022-12-15T01:28:25.251Z,19.13
2022-12-15T01:30:51.893Z,23.03
2022-12-15T01:33:20.429Z,32.87
2022-12-15T01:35:58.698Z,42.10
2022-12-15T01:38:26.576Z,39.90
2022-12-15T01:40:58.800Z,26.17
2022-12-15T01:43:29.523Z,38.60
2022-12-15T01:46:12.111Z,50.80
2022-12-15T01:48:49.156Z,116.50
2022-12-15T01:51:36.138Z,50.13
2022-12-15T01:54:09.968Z,34.77
2022-12-15T01:56:41.289Z,33.27
2022-12-15T01:59:11.055Z,35.87
2022-12-15T02:01:37.698Z,29.10
2022-12-15T02:04:04.533Z,31.47
2022-12-15T02:06:31.100Z,34.47
2022-12-15T02:09:00.664Z,32.83
2022-12-15T02:12:10.978Z,33.63
2022-12-15T02:14:55.178Z,32.57
2022-12-15T02:17:24.401Z,36.63
2022-12-15T02:19:59.718Z,32.70
2022-12-15T02:22:35.065Z,32.80
2022-12-15T02:25:40.497Z,35.10
2022-12-15T02:28:24.120Z,33.77
2022-12-15T02:31:33.938Z,24.03
2022-12-15T02:34:09.684Z,24.30
2022-12-15T02:36:41.296Z,27.07
2022-12-15T02:39:07.861Z,26.03
2022-12-15T02:41:40.935Z,22.33
2022-12-15T02:44:14.193Z,22.60
2022-12-15T02:47:11.842Z,24.63
2022-12-15T02:49:56.942Z,23.07
2022-12-15T02:52:55.662Z,21.97
2022-12-15T02:55:41.425Z,22.43
2022-12-15T02:58:22.537Z,24.00
2022-12-15T03:01:02.671Z,22.47
2022-12-15T03:03:33.191Z,22.90
2022-12-15T03:06:02.222Z,21.17
2022-12-15T03:08:29.793Z,27.50
2022-12-15T03:10:57.452Z,30.73
2022-12-15T03:13:24.704Z,30.40
2022-12-15T03:15:52.475Z,26.53
2022-12-15T03:18:19.081Z,30.80
2022-12-15T03:20:49.947Z,33.83
2022-12-15T03:23:16.735Z,34.73
2022-12-15T03:25:46.422Z,40.30
2022-12-15T03:28:16.747Z,62.60
2022-12-15T03:30:43.986Z,41.83
2022-12-15T03:33:11.489Z,70.23
2022-12-15T03:35:38.080Z,52.27
2022-12-15T03:38:04.721Z,72.07
2022-12-15T03:40:31.335Z,56.37
2022-12-15T03:42:58.900Z,43.83
2022-12-15T03:45:27.378Z,36.70
2022-12-15T03:47:55.626Z,30.67
2022-12-15T03:50:24.928Z,31.30
2022-12-15T03:53:02.830Z,34.37
2022-12-15T03:55:29.925Z,30.53
2022-12-15T03:57:57.199Z,28.97
2022-12-15T04:00:24.749Z,30.07
2022-12-15T04:02:52.219Z,33.63
2022-12-15T04:05:22.663Z,30.90
2022-12-15T04:07:49.300Z,32.50
2022-12-15T04:10:16.157Z,36.23
2022-12-15T04:12:42.743Z,32.53
2022-12-15T04:15:11.009Z,30.90
2022-12-15T04:17:38.090Z,31.47
2022-12-15T04:20:09.042Z,35.03
2022-12-15T04:22:40.772Z,36.07
2022-12-15T04:25:28.717Z,31.53
2022-12-15T04:28:14.648Z,26.77
2022-12-15T04:31:14.417Z,27.83
2022-12-15T04:34:03.729Z,30.57
2022-12-15T04:36:49.900Z,30.77
2022-12-15T04:39:35.294Z,33.03
2022-12-15T04:42:21.612Z,30.53
2022-12-15T04:45:12.208Z,29.40
2022-12-15T04:47:59.782Z,30.10
2022-12-15T04:50:45.254Z,30.00
2022-12-15T04:53:34.353Z,31.20
2022-12-15T04:56:19.777Z,41.67
2022-12-15T04:59:06.169Z,44.47
2022-12-15T05:01:52.652Z,32.13
2022-12-15T05:04:38.503Z,31.57
2022-12-15T05:07:23.752Z,33.57
2022-12-15T05:10:14.646Z,36.87
2022-12-15T05:13:00.850Z,31.77
2022-12-15T05:15:46.169Z,34.87
2022-12-15T05:18:31.375Z,34.63
2022-12-15T05:21:17.600Z,33.63
2022-12-15T05:24:02.749Z,34.83
2022-12-15T05:26:52.693Z,34.83
2022-12-15T05:29:38.296Z,30.87
2022-12-15T05:32:04.988Z,36.03
2022-12-15T05:34:33.832Z,34.57
2022-12-15T05:37:02.365Z,31.90
2022-12-15T05:39:29.621Z,42.17
2022-12-15T05:41:57.275Z,32.53
2022-12-15T05:44:25.501Z,28.93
2022-12-15T05:46:52.699Z,53.83
2022-12-15T05:49:19.439Z,38.90
2022-12-15T05:51:47.645Z,45.83
2022-12-15T05:54:17.453Z,42.57
2022-12-15T05:56:44.956Z,35.47
2022-12-15T05:59:12.223Z,48.83
2022-12-15T06:01:39.034Z,39.70
2022-12-15T06:04:05.827Z,37.33
2022-12-15T06:06:32.532Z,62.67
2022-12-15T06:08:59.244Z,45.70
2022-12-15T06:11:26.264Z,45.43
2022-12-15T06:13:55.778Z,54.87
2022-12-15T06:16:24.513Z,53.80
2022-12-15T06:18:54.888Z,46.40
2022-12-15T06:21:24.548Z,43.33
2022-12-15T06:23:51.943Z,114.10
2022-12-15T06:26:20.595Z,29.50
2022-12-15T06:28:48.447Z,53.07
2022-12-15T06:31:17.676Z,90.47
2022-12-15T06:33:44.328Z,35.13
2022-12-15T06:36:13.982Z,190.00
2022-12-15T06:38:43.544Z,37.57
2022-12-15T06:41:15.280Z,83.57
2022-12-15T06:43:42.181Z,304.73
2022-12-15T06:46:09.646Z,267.30
2022-12-15T06:48:36.659Z,199.77
2022-12-15T06:51:13.311Z,152.70
2022-12-15T06:53:50.862Z,42.57
2022-12-15T06:56:24.463Z,142.07
2022-12-15T06:58:56.146Z,233.67
2022-12-15T07:01:24.451Z,83.33
2022-12-15T07:03:52.734Z,170.83
2022-12-15T07:06:20.016Z,241.13
2022-12-15T07:08:54.240Z,182.33
2022-12-15T07:11:22.223Z,119.17
2022-12-15T07:13:52.973Z,220.77
2022-12-15T07:16:21.634Z,242.83
2022-12-15T07:18:48.865Z,68.40
2022-12-15T07:21:15.791Z,42.53
2022-12-15T07:23:58.438Z,123.57
2022-12-15T07:26:26.139Z,92.73
2022-12-15T07:28:53.572Z,118.80
2022-12-15T07:31:21.295Z,155.63
2022-12-15T07:33:48.441Z,69.27
2022-12-15T07:36:15.469Z,34.03
2022-12-15T07:38:42.315Z,38.23
2022-12-15T07:41:10.122Z,144.17
2022-12-15T07:43:37.900Z,129.50
2022-12-15T07:46:06.223Z,68.70
2022-12-15T07:48:33.392Z,34.00
2022-12-15T07:51:10.866Z,43.37
2022-12-15T07:53:38.239Z,55.43
2022-12-15T07:56:08.898Z,67.10
2022-12-15T07:58:37.130Z,63.27
2022-12-15T08:01:06.876Z,33.03
2022-12-15T08:03:34.665Z,30.53
2022-12-15T08:06:11.175Z,34.90
2022-12-15T08:08:38.337Z,73.07
2022-12-15T08:11:09.868Z,30.57
2022-12-15T08:16:24.629Z,39.03
2022-12-15T08:18:51.262Z,39.50
2022-12-15T08:21:17.945Z,27.03
2022-12-15T08:23:45.131Z,28.47
2022-12-15T08:26:14.467Z,36.60
2022-12-15T08:28:42.933Z,34.27
2022-12-15T08:31:17.833Z,32.67
2022-12-15T08:33:45.566Z,24.97
2022-12-15T08:36:14.429Z,33.70
2022-12-15T08:38:43.240Z,33.43
2022-12-15T08:41:13.249Z,48.27
2022-12-15T08:43:47.659Z,72.53
2022-12-15T08:46:17.008Z,28.67
2022-12-15T08:48:44.296Z,67.20
2022-12-15T08:51:10.987Z,30.53
2022-12-15T08:53:38.770Z,30.60
2022-12-15T08:56:12.360Z,30.07
2022-12-15T08:58:39.629Z,33.60
2022-12-15T09:01:09.670Z,31.87
2022-12-15T09:03:36.808Z,29.30
2022-12-15T09:06:07.070Z,28.07
2022-12-15T09:08:34.203Z,34.33
2022-12-15T09:11:01.640Z,30.03
2022-12-15T09:13:29.502Z,52.10
2022-12-15T09:16:09.536Z,38.07
2022-12-15T09:18:36.694Z,47.13
2022-12-15T09:21:05.305Z,27.97
2022-12-15T09:23:33.119Z,27.17
2022-12-15T09:26:10.497Z,27.17
2022-12-15T09:28:40.390Z,27.27
2022-12-15T09:31:21.218Z,26.83
2022-12-15T09:33:49.528Z,26.57
2022-12-15T09:36:16.221Z,28.07
2022-12-15T09:38:43.738Z,28.50
2022-12-15T09:41:13.299Z,25.67
2022-12-15T09:43:52.209Z,23.67
2022-12-15T09:46:22.126Z,24.60
2022-12-15T09:48:50.437Z,36.73
2022-12-15T09:51:19.222Z,25.37
2022-12-15T09:53:55.906Z,26.87
2022-12-15T09:56:58.498Z,23.43
2022-12-15T09:59:33.262Z,24.57
2022-12-15T10:02:27.594Z,24.77
2022-12-15T10:05:14.084Z,22.23
2022-12-15T10:07:46.274Z,23.60
2022-12-15T10:10:22.006Z,22.90
2022-12-15T10:13:00.151Z,24.73
2022-12-15T10:15:38.632Z,21.73
2022-12-15T10:18:10.491Z,23.83
2022-12-15T10:20:37.624Z,21.90
2022-12-15T10:23:16.245Z,21.00
2022-12-15T10:25:51.317Z,23.60
2022-12-15T10:29:02.102Z,21.33
2022-12-15T10:31:45.196Z,21.53
2022-12-15T10:34:31.076Z,23.90
2022-12-15T10:36:58.506Z,21.20
2022-12-15T10:39:39.825Z,20.03
2022-12-15T10:42:13.907Z,23.53
2022-12-15T10:44:44.041Z,22.43
2022-12-15T10:47:28.479Z,22.47
2022-12-15T10:50:19.573Z,19.90
2022-12-15T10:52:50.759Z,18.77
2022-12-15T10:55:37.886Z,20.77
2022-12-15T10:58:16.579Z,21.37
2022-12-15T11:00:43.248Z,19.10
2022-12-15T11:03:22.944Z,18.63
2022-12-15T11:05:56.476Z,20.00
2022-12-15T11:08:24.697Z,20.13
2022-12-15T11:11:13.607Z,18.50
2022-12-15T11:13:41.243Z,17.70
2022-12-15T11:16:26.285Z,20.33
2022-12-15T11:19:01.998Z,18.50
2022-12-15T11:21:44.910Z,19.00
2022-12-15T11:24:21.539Z,18.70
2022-12-15T11:27:20.992Z,18.67
2022-12-15T11:30:02.969Z,19.47
2022-12-15T11:32:34.065Z,19.20
2022-12-15T11:35:01.160Z,20.10
2022-12-15T11:37:39.054Z,17.87
2022-12-15T11:40:17.592Z,18.67
2022-12-15T11:42:53.009Z,17.77
2022-12-15T11:45:30.204Z,18.23
2022-12-15T11:48:19.843Z,19.67
2022-12-15T11:50:58.975Z,20.77
2022-12-15T11:53:49.449Z,21.87
2022-12-15T11:56:35.611Z,21.10
2022-12-15T11:59:39.948Z,22.70
2022-12-15T12:02:34.395Z,21.50
2022-12-15T12:05:00.958Z,20.17
2022-12-15T12:07:49.204Z,20.90
2022-12-15T12:10:33.354Z,19.10
2022-12-15T12:13:33.991Z,26.03
2022-12-15T12:16:06.714Z,37.60
2022-12-15T12:18:52.739Z,30.63
2022-12-15T12:21:37.297Z,42.40
2022-12-15T12:24:15.957Z,34.03
2022-12-15T12:26:50.305Z,30.53
2022-12-15T12:29:29.124Z,28.37
2022-12-15T12:32:05.391Z,29.67
2022-12-15T12:35:30.907Z,27.80
2022-12-15T12:37:54.893Z,27.57
2022-12-15T12:40:41.945Z,27.07
2022-12-15T12:43:14.112Z,32.13
2022-12-15T12:45:51.537Z,31.33
2022-12-15T12:48:31.090Z,33.37
2022-12-15T12:51:22.637Z,32.43
2022-12-15T12:53:50.367Z,34.90
2022-12-15T12:56:32.595Z,28.63
2022-12-15T12:58:59.590Z,26.87
2022-12-15T13:01:34.734Z,26.53
2022-12-15T13:04:33.840Z,27.93
2022-12-15T13:07:25.670Z,27.00
2022-12-15T13:10:14.447Z,28.20
2022-12-15T13:12:54.681Z,22.67
2022-12-15T13:15:27.284Z,22.57
2022-12-15T13:17:59.239Z,19.83
2022-12-15T13:20:34.853Z,19.43
2022-12-15T13:23:21.646Z,20.80
2022-12-15T13:25:57.131Z,19.87
2022-12-15T13:28:39.732Z,19.40
2022-12-15T13:31:22.002Z,18.73
2022-12-15T13:33:58.819Z,17.27
2022-12-15T13:36:37.712Z,15.63
2022-12-15T13:39:27.425Z,15.57
2022-12-15T13:44:57.388Z,16.33
2022-12-15T13:47:27.478Z,14.80
2022-12-15T13:50:02.209Z,16.73
2022-12-15T13:53:08.622Z,16.03
2022-12-15T13:55:28.802Z,16.03
2022-12-15T13:58:23.125Z,17.10
2022-12-15T14:00:57.188Z,14.67
2022-12-15T14:03:24.582Z,16.20
2022-12-15T14:05:56.741Z,16.10
2022-12-15T14:08:25.729Z,18.87
2022-12-15T14:10:56.767Z,46.37
2022-12-15T14:13:36.930Z,27.90
2022-12-15T14:16:19.032Z,17.67
2022-12-15T14:19:02.401Z,16.73
2022-12-15T14:21:30.394Z,14.97
2022-12-15T14:24:36.508Z,14.90
2022-12-15T14:26:44.510Z,14.33
2022-12-15T14:29:13.048Z,18.80
2022-12-15T14:31:40.621Z,20.77
2022-12-15T14:34:13.589Z,21.20
2022-12-15T14:36:42.063Z,18.63
2022-12-15T14:39:19.815Z,16.87
2022-12-15T14:41:51.421Z,17.20
2022-12-15T14:44:36.489Z,17.53
2022-12-15T14:47:15.258Z,17.20
2022-12-15T14:49:45.256Z,16.07
2022-12-15T14:52:37.198Z,19.40
2022-12-15T14:55:36.872Z,22.27
2022-12-15T14:58:26.593Z,18.53
2022-12-15T15:00:55.064Z,15.77
2022-12-15T15:03:27.708Z,16.23
2022-12-15T15:05:59.933Z,14.57
2022-12-15T15:08:34.823Z,16.10
2022-12-15T15:11:23.681Z,13.67
2022-12-15T15:13:56.093Z,15.60
2022-12-15T15:16:23.018Z,17.83
2022-12-15T15:18:52.254Z,16.83
2022-12-15T15:21:23.333Z,18.90
2022-12-15T15:24:00.171Z,18.50
2022-12-15T15:26:27.751Z,17.87
2022-12-15T15:28:54.694Z,17.67
2022-12-15T15:31:41.568Z,20.70
2022-12-15T15:34:08.868Z,20.17
2022-12-15T15:36:38.263Z,20.60
2022-12-15T15:39:13.563Z,18.40
2022-12-15T15:41:40.157Z,17.70
2022-12-15T15:44:14.749Z,16.20
2022-12-15T15:46:51.106Z,17.00
2022-12-15T15:49:21.711Z,17.80
2022-12-15T15:51:49.046Z,16.27
2022-12-15T15:54:22.213Z,18.30
2022-12-15T15:56:48.851Z,20.07
2022-12-15T15:59:18.238Z,18.37
2022-12-15T16:01:46.813Z,19.17
2022-12-15T16:04:13.496Z,19.43
2022-12-15T16:06:46.683Z,18.20
2022-12-15T16:09:15.326Z,16.60
2022-12-15T16:11:42.071Z,18.93
2022-12-15T16:14:14.096Z,19.83
2022-12-15T16:16:41.806Z,23.50
2022-12-15T16:19:08.619Z,24.07
2022-12-15T16:21:37.076Z,21.50
2022-12-15T16:24:15.635Z,20.83
2022-12-15T16:26:47.922Z,19.80
2022-12-15T16:29:17.534Z,17.73
2022-12-15T16:31:45.841Z,17.97
2022-12-15T16:34:14.017Z,19.47
2022-12-15T16:36:42.881Z,23.60
2022-12-15T16:39:26.724Z,19.47
2022-12-15T16:41:56.160Z,20.07
2022-12-15T16:44:25.325Z,20.10
2022-12-15T16:46:53.272Z,21.80
2022-12-15T16:49:21.588Z,22.40
2022-12-15T16:51:52.742Z,38.37
2022-12-15T16:54:26.440Z,44.50
2022-12-15T16:56:55.346Z,38.73
2022-12-15T16:59:35.324Z,32.43
2022-12-15T17:02:28.923Z,27.90
2022-12-15T17:04:56.524Z,24.70
2022-12-15T17:07:27.202Z,20.23
2022-12-15T17:09:54.667Z,24.30
2022-12-15T17:12:22.577Z,23.50
2022-12-15T17:14:49.678Z,22.27
2022-12-15T17:17:19.515Z,21.73
2022-12-15T17:20:20.023Z,24.67
2022-12-15T17:22:34.188Z,26.67
2022-12-15T17:25:02.169Z,27.20
2022-12-15T17:27:30.554Z,28.50
2022-12-15T17:30:00.205Z,29.53
2022-12-15T17:32:27.159Z,31.67
2022-12-15T17:34:54.848Z,34.63
2022-12-15T17:37:22.269Z,29.53
2022-12-15T17:39:51.509Z,27.53
2022-12-15T17:42:20.770Z,32.23
2022-12-15T17:44:48.974Z,32.80
2022-12-15T17:47:19.288Z,30.77
2022-12-15T17:49:47.806Z,30.57
2022-12-15T17:52:22.858Z,27.63
2022-12-15T17:54:51.985Z,25.53
2022-12-15T17:57:19.633Z,28.10
2022-12-15T17:59:48.802Z,25.43
2022-12-15T18:02:16.956Z,27.97
2022-12-15T18:04:45.311Z,29.43
2022-12-15T18:07:24.202Z,27.77
2022-12-15T18:09:52.483Z,27.90
2022-12-15T18:12:25.395Z,24.73
2022-12-15T18:14:53.057Z,25.83
2022-12-15T18:17:20.397Z,26.23
2022-12-15T18:19:47.305Z,25.30
2022-12-15T18:22:19.187Z,24.87
2022-12-15T18:24:47.200Z,26.30
2022-12-15T18:27:23.526Z,23.30
2022-12-15T18:29:50.702Z,26.47
2022-12-15T18:32:18.002Z,23.40
2022-12-15T18:34:44.809Z,23.73
2022-12-15T18:37:19.264Z,21.23
2022-12-15T18:39:46.578Z,25.53
2022-12-15T18:42:19.674Z,25.73
2022-12-15T18:44:49.225Z,28.17
2022-12-15T18:47:21.771Z,33.73
2022-12-15T18:49:49.289Z,29.43
2022-12-15T18:52:21.526Z,37.67
2022-12-15T18:54:50.551Z,33.87
2022-12-15T18:57:27.146Z,31.30
2022-12-15T18:59:57.405Z,38.30
2022-12-15T19:02:24.202Z,55.10
2022-12-15T19:04:50.991Z,58.47
2022-12-15T19:07:17.565Z,59.07
2022-12-15T19:09:44.166Z,65.07
2022-12-15T19:12:17.952Z,96.40
2022-12-15T19:14:47.080Z,214.47
2022-12-15T19:17:35.336Z,228.13
2022-12-15T19:20:22.149Z,339.80
2022-12-15T19:22:50.658Z,485.27
2022-12-15T19:25:25.976Z,383.90
2022-12-15T19:27:58.749Z,481.07
2022-12-15T19:30:28.366Z,449.10
2022-12-15T19:32:55.349Z,487.50
2022-12-15T19:35:22.060Z,416.63
2022-12-15T19:37:49.934Z,208.73
2022-12-15T19:40:22.669Z,368.27
2022-12-15T19:42:50.269Z,377.40
2022-12-15T19:45:20.255Z,188.57
2022-12-15T19:47:47.953Z,116.87
2022-12-15T19:50:20.961Z,66.97
2022-12-15T19:52:51.534Z,123.13
2022-12-15T19:55:23.777Z,150.90
2022-12-15T19:57:50.376Z,76.33
2022-12-15T20:00:21.770Z,127.77
2022-12-15T20:02:51.359Z,104.03
2022-12-15T20:05:19.439Z,92.17
2022-12-15T20:07:46.376Z,57.80
2022-12-15T20:10:24.385Z,66.93
2022-12-15T20:12:54.513Z,51.53
2022-12-15T20:15:23.985Z,54.97
2022-12-15T20:17:57.064Z,56.10
2022-12-15T20:20:27.107Z,54.07
2022-12-15T20:22:56.684Z,52.53
2022-12-15T20:25:30.329Z,59.13
2022-12-15T20:27:57.702Z,55.63
2022-12-15T20:30:32.071Z,52.03
2022-12-15T20:33:04.030Z,43.27
2022-12-15T20:35:34.630Z,40.23
2022-12-15T20:38:07.987Z,41.97
2022-12-15T20:40:34.541Z,38.47
2022-12-15T20:43:01.409Z,41.00
2022-12-15T20:45:28.036Z,40.83
2022-12-15T20:47:56.195Z,31.63
2022-12-15T20:50:31.932Z,34.90
2022-12-15T20:52:59.121Z,34.63
2022-12-15T20:55:26.416Z,37.57
2022-12-15T20:57:53.979Z,34.17
2022-12-15T21:00:22.114Z,32.10
2022-12-15T21:02:50.296Z,27.47
2022-12-15T21:05:25.015Z,28.30
2022-12-15T21:07:52.437Z,31.30
2022-12-15T21:10:20.647Z,31.03
2022-12-15T21:12:49.343Z,31.23
2022-12-15T21:15:23.491Z,29.07
2022-12-15T21:18:08.856Z,29.10
2022-12-15T21:20:41.437Z,27.37
2022-12-15T21:23:19.649Z,30.77
2022-12-15T21:25:47.280Z,29.17
2022-12-15T21:28:14.194Z,30.47
2022-12-15T21:30:41.280Z,31.83
2022-12-15T21:33:07.926Z,37.77
2022-12-15T21:35:35.289Z,50.73
2022-12-15T21:38:02.365Z,57.27
2022-12-15T21:40:29.514Z,46.87
2022-12-15T21:42:56.924Z,53.33
2022-12-15T21:45:25.909Z,43.80
2022-12-15T21:48:12.493Z,38.37
2022-12-15T21:50:39.536Z,49.63
2022-12-15T21:53:06.961Z,56.60
2022-12-15T21:55:33.719Z,83.77
2022-12-15T21:58:00.262Z,59.50
2022-12-15T22:00:26.918Z,156.87
2022-12-15T22:02:53.786Z,240.50
2022-12-15T22:05:22.852Z,464.03
2022-12-15T22:07:50.492Z,452.53
2022-12-15T22:10:18.292Z,414.70
2022-12-15T22:12:51.491Z,464.00
2022-12-15T22:15:24.319Z,590.10
2022-12-15T22:17:50.904Z,378.67
2022-12-15T22:20:22.650Z,275.77
2022-12-15T22:22:50.209Z,204.10
2022-12-15T22:25:25.004Z,221.37
2022-12-15T22:27:52.518Z,171.97
2022-12-15T22:30:26.503Z,147.70
2022-12-15T22:32:53.818Z,103.43
2022-12-15T22:35:23.161Z,70.80
2022-12-15T22:37:53.391Z,119.20
2022-12-15T22:40:21.569Z,350.17
2022-12-15T22:42:55.155Z,406.37
2022-12-15T22:45:24.112Z,387.80
2022-12-15T22:47:52.369Z,391.33
2022-12-15T22:50:23.610Z,471.17
2022-12-15T22:52:50.611Z,267.33
2022-12-15T22:55:20.568Z,222.77
2022-12-15T22:57:56.612Z,207.07
2022-12-15T23:00:23.203Z,155.40
2022-12-15T23:02:49.936Z,60.27
2022-12-15T23:05:18.974Z,48.53
2022-12-15T23:07:46.251Z,52.70
2022-12-15T23:10:33.643Z,95.67
2022-12-15T23:13:00.202Z,250.67
2022-12-15T23:15:47.179Z,214.97
2022-12-15T23:18:14.339Z,178.40
2022-12-15T23:20:41.204Z,366.90
2022-12-15T23:23:08.340Z,150.27
2022-12-15T23:25:34.960Z,135.57
2022-12-15T23:28:01.544Z,77.63
2022-12-15T23:30:28.102Z,76.90
2022-12-15T23:32:55.411Z,275.13
2022-12-15T23:35:22.183Z,268.20
2022-12-15T23:37:48.806Z,151.37
2022-12-15T23:40:21.273Z,86.43
2022-12-15T23:42:48.774Z,187.50
2022-12-15T23:45:15.481Z,220.07
2022-12-15T23:47:42.414Z,233.00
2022-12-15T23:50:09.603Z,272.50
2022-12-15T23:52:36.865Z,298.00
2022-12-15T23:55:04.637Z,302.77
2022-12-15T23:57:31.517Z,242.83
2022-12-15T23:59:58.087Z,146.53
